sensor_id;sensor_type;location;lat;lon;timestamp;pressure;altitude;pressure_sealevel;temperature;humidity
17764;BME280;22245;52.832;13.816;2023-04-01T00:01:32;99485.09;;;9.73;94.54
17764;BME280;22245;52.832;13.816;2023-04-01T00:04:54;99484.28;;;9.72;95.04
17764;BME280;22245;52.832;13.816;2023-04-01T00:08:16;99481.75;;;9.70;94.87
17764;BME280;22245;52.832;13.816;2023-04-01T00:11:38;99486.25;;;9.70;94.91
17764;BME280;22245;52.832;13.816;2023-04-01T00:15:02;99481.75;;;9.70;95.17
17764;BME280;22245;52.832;13.816;2023-04-01T00:18:24;99485.28;;;9.71;95.09
17764;BME280;22245;52.832;13.816;2023-04-01T00:21:46;99489.59;;;9.72;95.04
17764;BME280;22245;52.832;13.816;2023-04-01T00:25:09;99489.59;;;9.72;94.89
17764;BME280;22245;52.832;13.816;2023-04-01T00:28:33;99491.28;;;9.73;94.58
17764;BME280;22245;52.832;13.816;2023-04-01T00:31:57;99489.59;;;9.72;94.28
17764;BME280;22245;52.832;13.816;2023-04-01T00:35:19;99487.94;;;9.71;94.44
17764;BME280;22245;52.832;13.816;2023-04-01T00:38:43;99487.09;;;9.70;94.52
17764;BME280;22245;52.832;13.816;2023-04-01T00:42:05;99491.72;;;9.68;94.40
17764;BME280;22245;52.832;13.816;2023-04-01T00:45:31;99483.91;;;9.67;94.64
17764;BME280;22245;52.832;13.816;2023-04-01T00:48:55;99482.22;;;9.66;94.65
17764;BME280;22245;52.832;13.816;2023-04-01T00:52:20;99477.22;;;9.63;94.76
17764;BME280;22245;52.832;13.816;2023-04-01T00:55:47;99480.88;;;9.62;94.94
17764;BME280;22245;52.832;13.816;2023-04-01T00:59:14;99482.72;;;9.61;95.02
17764;BME280;22245;52.832;13.816;2023-04-01T01:02:38;99483.69;;;9.60;95.29
17764;BME280;22245;52.832;13.816;2023-04-01T01:06:26;99483.03;;;9.58;95.17
17764;BME280;22245;52.832;13.816;2023-04-01T01:09:59;99485.00;;;9.56;94.86
17764;BME280;22245;52.832;13.816;2023-04-01T01:13:27;99487.66;;;9.56;95.33
17764;BME280;22245;52.832;13.816;2023-04-01T01:16:54;99481.34;;;9.57;94.69
17764;BME280;22245;52.832;13.816;2023-04-01T01:24:28;99481.00;;;9.52;95.12
17764;BME280;22245;52.832;13.816;2023-04-01T01:27:58;99486.63;;;9.49;95.36
17764;BME280;22245;52.832;13.816;2023-04-01T01:31:31;99489.41;;;9.47;95.39
17764;BME280;22245;52.832;13.816;2023-04-01T01:35:06;99491.22;;;9.47;95.90
17764;BME280;22245;52.832;13.816;2023-04-01T01:38:33;99498.53;;;9.45;95.61
17764;BME280;22245;52.832;13.816;2023-04-01T01:42:00;99494.06;;;9.45;95.43
17764;BME280;22245;52.832;13.816;2023-04-01T01:45:24;99493.22;;;9.45;95.41
17764;BME280;22245;52.832;13.816;2023-04-01T01:48:47;99487.22;;;9.43;95.75
17764;BME280;22245;52.832;13.816;2023-04-01T01:52:12;99495.88;;;9.45;95.38
17764;BME280;22245;52.832;13.816;2023-04-01T01:55:35;99492.38;;;9.44;95.71
17764;BME280;22245;52.832;13.816;2023-04-01T01:59:01;99497.84;;;9.43;95.80
17764;BME280;22245;52.832;13.816;2023-04-01T02:02:25;99495.19;;;9.43;95.93
17764;BME280;22245;52.832;13.816;2023-04-01T02:05:53;99503.34;;;9.41;96.11
17764;BME280;22245;52.832;13.816;2023-04-01T02:09:18;99498.84;;;9.41;96.15
17764;BME280;22245;52.832;13.816;2023-04-01T02:12:40;99497.84;;;9.43;96.41
17764;BME280;22245;52.832;13.816;2023-04-01T02:16:08;99502.34;;;9.42;96.56
17764;BME280;22245;52.832;13.816;2023-04-01T02:19:36;99509.47;;;9.41;96.88
17764;BME280;22245;52.832;13.816;2023-04-01T02:22:59;99503.03;;;9.44;96.75
17764;BME280;22245;52.832;13.816;2023-04-01T02:26:23;99506.34;;;9.46;97.08
17764;BME280;22245;52.832;13.816;2023-04-01T02:29:47;99509.69;;;9.48;96.81
17764;BME280;22245;52.832;13.816;2023-04-01T02:33:08;99507.88;;;9.49;97.00
17764;BME280;22245;52.832;13.816;2023-04-01T02:36:30;99507.19;;;9.47;97.23
17764;BME280;22245;52.832;13.816;2023-04-01T02:39:52;99514.19;;;9.48;97.03
17764;BME280;22245;52.832;13.816;2023-04-01T02:43:15;99520.19;;;9.50;97.55
17764;BME280;22245;52.832;13.816;2023-04-01T02:46:37;99514.69;;;9.51;97.24
17764;BME280;22245;52.832;13.816;2023-04-01T02:49:59;99522.53;;;9.53;97.16
17764;BME280;22245;52.832;13.816;2023-04-01T02:53:21;99526.84;;;9.54;97.03
17764;BME280;22245;52.832;13.816;2023-04-01T02:56:43;99534.81;;;9.54;97.21
17764;BME280;22245;52.832;13.816;2023-04-01T03:00:08;99529.50;;;9.54;97.25
17764;BME280;22245;52.832;13.816;2023-04-01T03:03:31;99526.84;;;9.54;97.30
17764;BME280;22245;52.832;13.816;2023-04-01T03:06:53;99535.81;;;9.53;97.53
17764;BME280;22245;52.832;13.816;2023-04-01T03:10:15;99532.00;;;9.55;97.65
17764;BME280;22245;52.832;13.816;2023-04-01T03:13:37;99529.19;;;9.57;97.45
17764;BME280;22245;52.832;13.816;2023-04-01T03:17:00;99536.19;;;9.58;97.36
17764;BME280;22245;52.832;13.816;2023-04-01T03:20:22;99536.88;;;9.60;97.55
17764;BME280;22245;52.832;13.816;2023-04-01T03:23:43;99533.34;;;9.60;97.29
17764;BME280;22245;52.832;13.816;2023-04-01T03:27:05;99536.69;;;9.62;97.25
17764;BME280;22245;52.832;13.816;2023-04-01T03:30:28;99542.19;;;9.60;96.98
17764;BME280;22245;52.832;13.816;2023-04-01T03:33:52;99549.31;;;9.60;97.12
17764;BME280;22245;52.832;13.816;2023-04-01T03:37:14;99544.97;;;9.59;97.38
17764;BME280;22245;52.832;13.816;2023-04-01T03:40:36;99551.16;;;9.59;97.75
17764;BME280;22245;52.832;13.816;2023-04-01T03:43:59;99557.59;;;9.56;97.43
17764;BME280;22245;52.832;13.816;2023-04-01T03:47:20;99562.09;;;9.56;97.42
17764;BME280;22245;52.832;13.816;2023-04-01T03:50:44;99562.09;;;9.56;97.31
17764;BME280;22245;52.832;13.816;2023-04-01T03:54:06;99558.75;;;9.54;97.57
17764;BME280;22245;52.832;13.816;2023-04-01T03:57:30;99564.75;;;9.56;98.00
17764;BME280;22245;52.832;13.816;2023-04-01T04:00:59;99569.59;;;9.61;97.55
17764;BME280;22245;52.832;13.816;2023-04-01T04:04:21;99573.91;;;9.62;97.67
17764;BME280;22245;52.832;13.816;2023-04-01T04:07:44;99568.75;;;9.60;97.38
17764;BME280;22245;52.832;13.816;2023-04-01T04:11:07;99581.75;;;9.63;97.60
17764;BME280;22245;52.832;13.816;2023-04-01T04:14:32;99582.13;;;9.68;97.66
17764;BME280;22245;52.832;13.816;2023-04-01T04:17:54;99583.78;;;9.69;96.83
17764;BME280;22245;52.832;13.816;2023-04-01T04:21:15;99579.47;;;9.68;96.24
17764;BME280;22245;52.832;13.816;2023-04-01T04:24:39;99586.53;;;9.60;95.83
17764;BME280;22245;52.832;13.816;2023-04-01T04:28:04;99603.69;;;9.47;96.03
17764;BME280;22245;52.832;13.816;2023-04-01T04:31:26;99603.41;;;9.50;96.06
17764;BME280;22245;52.832;13.816;2023-04-01T04:34:50;99604.69;;;9.46;95.94
17764;BME280;22245;52.832;13.816;2023-04-01T04:38:12;99605.22;;;9.50;95.25
17764;BME280;22245;52.832;13.816;2023-04-01T04:41:37;99610.91;;;9.55;95.46
17764;BME280;22245;52.832;13.816;2023-04-01T04:44:58;99617.75;;;9.58;95.03
17764;BME280;22245;52.832;13.816;2023-04-01T04:48:20;99615.63;;;9.61;94.06
17764;BME280;22245;52.832;13.816;2023-04-01T04:51:42;99617.97;;;9.64;93.18
17764;BME280;22245;52.832;13.816;2023-04-01T04:55:06;99621.31;;;9.66;93.14
17764;BME280;22245;52.832;13.816;2023-04-01T04:58:29;99623.97;;;9.66;92.00
17764;BME280;22245;52.832;13.816;2023-04-01T05:01:51;99628.84;;;9.53;91.52
17764;BME280;22245;52.832;13.816;2023-04-01T05:05:13;99636.44;;;9.48;92.19
17764;BME280;22245;52.832;13.816;2023-04-01T05:08:35;99633.06;;;9.46;92.11
17764;BME280;22245;52.832;13.816;2023-04-01T05:11:57;99636.50;;;9.38;92.27
17764;BME280;22245;52.832;13.816;2023-04-01T05:15:25;99648.25;;;9.35;91.79
17764;BME280;22245;52.832;13.816;2023-04-01T05:18:47;99655.41;;;9.35;92.26
17764;BME280;22245;52.832;13.816;2023-04-01T05:22:09;99659.78;;;9.26;91.88
17764;BME280;22245;52.832;13.816;2023-04-01T05:25:30;99651.13;;;9.24;92.18
17764;BME280;22245;52.832;13.816;2023-04-01T05:28:53;99658.03;;;9.17;92.28
17764;BME280;22245;52.832;13.816;2023-04-01T05:32:16;99663.06;;;9.20;92.58
17764;BME280;22245;52.832;13.816;2023-04-01T05:35:38;99665.31;;;9.15;91.29
17764;BME280;22245;52.832;13.816;2023-04-01T05:39:00;99668.28;;;9.11;91.49
17764;BME280;22245;52.832;13.816;2023-04-01T05:42:22;99670.09;;;9.11;90.99
17764;BME280;22245;52.832;13.816;2023-04-01T05:45:44;99667.13;;;9.14;90.64
17764;BME280;22245;52.832;13.816;2023-04-01T05:49:07;99671.63;;;9.14;90.08
17764;BME280;22245;52.832;13.816;2023-04-01T05:52:29;99683.91;;;9.15;89.90
17764;BME280;22245;52.832;13.816;2023-04-01T05:55:51;99685.03;;;9.12;89.78
17764;BME280;22245;52.832;13.816;2023-04-01T05:59:13;99682.53;;;9.10;89.80
17764;BME280;22245;52.832;13.816;2023-04-01T06:02:34;99688.69;;;9.11;89.92
17764;BME280;22245;52.832;13.816;2023-04-01T06:05:59;99693.16;;;9.10;89.73
17764;BME280;22245;52.832;13.816;2023-04-01T06:09:26;99694.16;;;9.09;89.04
17764;BME280;22245;52.832;13.816;2023-04-01T06:12:55;99697.63;;;9.10;88.89
17764;BME280;22245;52.832;13.816;2023-04-01T06:16:28;99706.44;;;9.10;88.48
17764;BME280;22245;52.832;13.816;2023-04-01T06:19:58;99711.75;;;9.10;88.19
17764;BME280;22245;52.832;13.816;2023-04-01T06:23:30;99719.31;;;9.05;87.59
17764;BME280;22245;52.832;13.816;2023-04-01T06:27:02;99723.53;;;8.98;87.39
17764;BME280;22245;52.832;13.816;2023-04-01T06:30:41;99737.50;;;9.00;87.31
17764;BME280;22245;52.832;13.816;2023-04-01T06:38:22;99735.31;;;8.86;86.98
17764;BME280;22245;52.832;13.816;2023-04-01T06:42:13;99740.25;;;8.80;87.12
17764;BME280;22245;52.832;13.816;2023-04-01T06:45:44;99744.69;;;8.80;87.68
17764;BME280;22245;52.832;13.816;2023-04-01T06:49:48;99747.22;;;8.81;87.02
17764;BME280;22245;52.832;13.816;2023-04-01T06:53:37;99756.84;;;8.82;87.01
17764;BME280;22245;52.832;13.816;2023-04-01T06:57:27;99758.94;;;8.79;86.83
17764;BME280;22245;52.832;13.816;2023-04-01T07:00:53;99753.94;;;8.76;86.74
17764;BME280;22245;52.832;13.816;2023-04-01T07:04:19;99766.22;;;8.77;87.03
17764;BME280;22245;52.832;13.816;2023-04-01T07:07:44;99765.41;;;8.76;87.11
17764;BME280;22245;52.832;13.816;2023-04-01T07:11:09;99755.91;;;8.74;86.98
17764;BME280;22245;52.832;13.816;2023-04-01T07:14:54;99764.28;;;8.69;86.76
17764;BME280;22245;52.832;13.816;2023-04-01T07:18:22;99763.47;;;8.68;86.65
17764;BME280;22245;52.832;13.816;2023-04-01T07:21:49;99771.53;;;8.67;87.11
17764;BME280;22245;52.832;13.816;2023-04-01T07:25:24;99763.59;;;8.67;86.47
17764;BME280;22245;52.832;13.816;2023-04-01T07:29:08;99772.00;;;8.62;86.98
17764;BME280;22245;52.832;13.816;2023-04-01T07:32:41;99780.25;;;8.59;86.83
17764;BME280;22245;52.832;13.816;2023-04-01T07:36:08;99785.97;;;8.54;86.69
17764;BME280;22245;52.832;13.816;2023-04-01T07:39:38;99793.94;;;8.54;87.33
17764;BME280;22245;52.832;13.816;2023-04-01T07:43:25;99795.03;;;8.52;86.56
17764;BME280;22245;52.832;13.816;2023-04-01T07:47:19;99796.72;;;8.43;87.44
17764;BME280;22245;52.832;13.816;2023-04-01T07:50:51;99801.03;;;8.44;87.46
17764;BME280;22245;52.832;13.816;2023-04-01T07:54:18;99803.00;;;8.42;87.27
17764;BME280;22245;52.832;13.816;2023-04-01T07:57:49;99810.94;;;8.42;87.36
17764;BME280;22245;52.832;13.816;2023-04-01T08:01:18;99809.13;;;8.43;86.88
17764;BME280;22245;52.832;13.816;2023-04-01T08:04:53;99817.94;;;8.43;87.37
17764;BME280;22245;52.832;13.816;2023-04-01T08:08:26;99814.03;;;8.47;87.22
17764;BME280;22245;52.832;13.816;2023-04-01T08:12:31;99820.44;;;8.45;86.22
17764;BME280;22245;52.832;13.816;2023-04-01T08:16:00;99824.75;;;8.46;86.40
17764;BME280;22245;52.832;13.816;2023-04-01T08:19:49;99831.91;;;8.45;85.76
17764;BME280;22245;52.832;13.816;2023-04-01T08:23:15;99826.72;;;8.44;86.42
17764;BME280;22245;52.832;13.816;2023-04-01T08:26:41;99836.91;;;8.48;86.88
17764;BME280;22245;52.832;13.816;2023-04-01T08:30:16;99838.19;;;8.44;86.04
17764;BME280;22245;52.832;13.816;2023-04-01T08:33:40;99841.13;;;8.41;86.08
17764;BME280;22245;52.832;13.816;2023-04-01T08:37:10;99860.38;;;8.43;86.68
17764;BME280;22245;52.832;13.816;2023-04-01T08:41:00;99843.06;;;8.39;87.57
17764;BME280;22245;52.832;13.816;2023-04-01T08:45:13;99852.84;;;8.38;86.38
17764;BME280;22245;52.832;13.816;2023-04-01T08:49:00;99857.31;;;8.38;86.45
17764;BME280;22245;52.832;13.816;2023-04-01T08:52:31;99854.66;;;8.38;86.76
17764;BME280;22245;52.832;13.816;2023-04-01T08:56:06;99864.84;;;8.43;86.49
17764;BME280;22245;52.832;13.816;2023-04-01T08:59:43;99864.44;;;8.47;85.98
17764;BME280;22245;52.832;13.816;2023-04-01T09:04:17;99871.16;;;8.51;86.18
17764;BME280;22245;52.832;13.816;2023-04-01T09:07:52;99872.25;;;8.49;85.32
17764;BME280;22245;52.832;13.816;2023-04-01T09:11:28;99888.31;;;8.47;86.32
17764;BME280;22245;52.832;13.816;2023-04-01T09:19:24;99889.84;;;8.40;86.09
17764;BME280;22245;52.832;13.816;2023-04-01T09:23:09;99896.97;;;8.39;85.84
17764;BME280;22245;52.832;13.816;2023-04-01T09:26:44;99900.19;;;8.43;85.60
17764;BME280;22245;52.832;13.816;2023-04-01T09:30:32;99894.44;;;8.48;86.08
17764;BME280;22245;52.832;13.816;2023-04-01T09:34:23;99906.19;;;8.45;85.84
17764;BME280;22245;52.832;13.816;2023-04-01T09:38:04;99913.19;;;8.46;85.77
17764;BME280;22245;52.832;13.816;2023-04-01T09:41:40;99908.16;;;8.43;85.76
17764;BME280;22245;52.832;13.816;2023-04-01T09:45:25;99917.78;;;8.44;85.61
17764;BME280;22245;52.832;13.816;2023-04-01T09:49:08;99919.88;;;8.40;85.17
17764;BME280;22245;52.832;13.816;2023-04-01T09:52:41;99919.75;;;8.42;85.51
17764;BME280;22245;52.832;13.816;2023-04-01T09:56:27;99923.56;;;8.49;85.98
17764;BME280;22245;52.832;13.816;2023-04-01T10:00:15;99938.03;;;8.45;85.61
17764;BME280;22245;52.832;13.816;2023-04-01T10:04:16;99946.88;;;8.56;86.32
17764;BME280;22245;52.832;13.816;2023-04-01T10:08:06;99942.16;;;8.59;85.45
17764;BME280;22245;52.832;13.816;2023-04-01T10:12:12;99947.56;;;8.58;85.45
17764;BME280;22245;52.832;13.816;2023-04-01T10:16:17;99943.66;;;8.62;85.09
17764;BME280;22245;52.832;13.816;2023-04-01T10:19:59;99951.91;;;8.59;83.76
17764;BME280;22245;52.832;13.816;2023-04-01T10:23:47;99956.50;;;8.57;83.90
17764;BME280;22245;52.832;13.816;2023-04-01T10:27:47;99968.00;;;8.57;84.18
17764;BME280;22245;52.832;13.816;2023-04-01T10:31:56;99972.44;;;8.57;83.30
17764;BME280;22245;52.832;13.816;2023-04-01T10:35:45;99963.06;;;8.52;83.38
17764;BME280;22245;52.832;13.816;2023-04-01T10:39:35;99961.66;;;8.48;83.64
17764;BME280;22245;52.832;13.816;2023-04-01T10:52:23;99983.28;;;8.44;82.99
17764;BME280;22245;52.832;13.816;2023-04-01T10:56:35;99977.22;;;8.32;83.89
17764;BME280;22245;52.832;13.816;2023-04-01T11:00:51;99979.19;;;8.30;84.46
17764;BME280;22245;52.832;13.816;2023-04-01T11:05:18;99983.81;;;8.37;84.82
17764;BME280;22245;52.832;13.816;2023-04-01T11:09:15;99989.44;;;8.44;84.28
17764;BME280;22245;52.832;13.816;2023-04-01T11:13:20;99989.44;;;8.44;82.98
17764;BME280;22245;52.832;13.816;2023-04-01T11:17:43;99993.59;;;8.37;82.58
17764;BME280;22245;52.832;13.816;2023-04-01T11:25:29;100000.81;;;8.25;83.64
17764;BME280;22245;52.832;13.816;2023-04-01T11:33:35;100011.72;;;8.22;83.71
17764;BME280;22245;52.832;13.816;2023-04-01T11:37:06;100022.88;;;8.25;83.51
17764;BME280;22245;52.832;13.816;2023-04-01T11:40:45;100019.25;;;8.26;84.03
17764;BME280;22245;52.832;13.816;2023-04-01T11:44:28;100025.25;;;8.29;84.58
17764;BME280;22245;52.832;13.816;2023-04-01T11:48:19;100028.75;;;8.29;83.94
17764;BME280;22245;52.832;13.816;2023-04-01T11:52:04;100036.56;;;8.31;83.79
17764;BME280;22245;52.832;13.816;2023-04-01T11:55:38;100042.72;;;8.31;84.62
17764;BME280;22245;52.832;13.816;2023-04-01T11:59:24;100036.44;;;8.32;83.50
17764;BME280;22245;52.832;13.816;2023-04-01T12:03:04;100041.63;;;8.34;83.08
17764;BME280;22245;52.832;13.816;2023-04-01T12:06:38;100046.94;;;8.34;82.47
17764;BME280;22245;52.832;13.816;2023-04-01T12:10:16;100055.16;;;8.31;81.93
17764;BME280;22245;52.832;13.816;2023-04-01T12:13:42;100058.78;;;8.30;82.60
17764;BME280;22245;52.832;13.816;2023-04-01T12:17:10;100059.03;;;8.26;82.71
17764;BME280;22245;52.832;13.816;2023-04-01T12:20:44;100065.91;;;8.29;83.29
17764;BME280;22245;52.832;13.816;2023-04-01T12:24:32;100068.88;;;8.36;83.79
17764;BME280;22245;52.832;13.816;2023-04-01T12:28:09;100065.38;;;8.35;83.24
17764;BME280;22245;52.832;13.816;2023-04-01T12:31:40;100076.63;;;8.28;82.52
17764;BME280;22245;52.832;13.816;2023-04-01T12:35:22;100085.13;;;8.21;82.31
17764;BME280;22245;52.832;13.816;2023-04-01T12:38:58;100083.88;;;8.16;82.50
17764;BME280;22245;52.832;13.816;2023-04-01T12:42:55;100091.22;;;8.12;82.66
17764;BME280;22245;52.832;13.816;2023-04-01T12:46:25;100097.31;;;8.03;83.79
17764;BME280;22245;52.832;13.816;2023-04-01T12:50:00;100094.72;;;7.91;82.61
17764;BME280;22245;52.832;13.816;2023-04-01T12:53:35;100106.03;;;7.93;83.13
17764;BME280;22245;52.832;13.816;2023-04-01T12:57:13;100105.81;;;7.96;82.66
17764;BME280;22245;52.832;13.816;2023-04-01T13:00:53;100115.56;;;7.96;82.75
17764;BME280;22245;52.832;13.816;2023-04-01T13:08:42;100119.00;;;7.87;83.17
17764;BME280;22245;52.832;13.816;2023-04-01T13:12:21;100132.81;;;7.90;83.18
17764;BME280;22245;52.832;13.816;2023-04-01T13:15:51;100141.38;;;7.94;83.03
17764;BME280;22245;52.832;13.816;2023-04-01T13:19:18;100130.63;;;7.95;82.58
17764;BME280;22245;52.832;13.816;2023-04-01T13:22:52;100138.25;;;7.89;82.71
17764;BME280;22245;52.832;13.816;2023-04-01T13:26:26;100142.84;;;7.87;82.48
17764;BME280;22245;52.832;13.816;2023-04-01T13:30:02;100145.75;;;7.84;83.19
17764;BME280;22245;52.832;13.816;2023-04-01T13:33:27;100149.25;;;7.84;83.26
17764;BME280;22245;52.832;13.816;2023-04-01T13:37:09;100155.13;;;7.88;83.77
17764;BME280;22245;52.832;13.816;2023-04-01T13:40:38;100156.41;;;7.93;83.78
17764;BME280;22245;52.832;13.816;2023-04-01T13:44:28;100168.13;;;7.91;83.03
17764;BME280;22245;52.832;13.816;2023-04-01T13:52:04;100181.66;;;7.88;83.30
17764;BME280;22245;52.832;13.816;2023-04-01T13:55:48;100173.09;;;7.84;83.08
17764;BME280;22245;52.832;13.816;2023-04-01T13:59:57;100181.31;;;7.81;83.55
17764;BME280;22245;52.832;13.816;2023-04-01T14:03:30;100184.22;;;7.78;83.00
17764;BME280;22245;52.832;13.816;2023-04-01T14:07:05;100188.91;;;7.74;83.36
17764;BME280;22245;52.832;13.816;2023-04-01T14:10:38;100192.78;;;7.70;82.29
17764;BME280;22245;52.832;13.816;2023-04-01T14:14:06;100207.88;;;7.70;83.18
17764;BME280;22245;52.832;13.816;2023-04-01T14:17:46;100213.94;;;7.60;81.68
17764;BME280;22245;52.832;13.816;2023-04-01T14:21:23;100205.88;;;7.50;83.57
17764;BME280;22245;52.832;13.816;2023-04-01T14:25:04;100222.13;;;7.46;83.19
17764;BME280;22245;52.832;13.816;2023-04-01T14:28:41;100222.03;;;7.47;84.06
17764;BME280;22245;52.832;13.816;2023-04-01T14:32:11;100218.53;;;7.47;84.33
17764;BME280;22245;52.832;13.816;2023-04-01T14:35:38;100232.22;;;7.52;83.87
17764;BME280;22245;52.832;13.816;2023-04-01T14:39:15;100229.00;;;7.48;83.48
17764;BME280;22245;52.832;13.816;2023-04-01T14:42:53;100230.56;;;7.51;82.99
17764;BME280;22245;52.832;13.816;2023-04-01T14:46:30;100232.22;;;7.52;82.53
17764;BME280;22245;52.832;13.816;2023-04-01T14:50:04;100239.56;;;7.60;83.14
17764;BME280;22245;52.832;13.816;2023-04-01T14:53:30;100249.09;;;7.62;83.35
17764;BME280;22245;52.832;13.816;2023-04-01T14:57:05;100252.09;;;7.58;81.18
17764;BME280;22245;52.832;13.816;2023-04-01T15:00:47;100261.78;;;7.47;81.12
17764;BME280;22245;52.832;13.816;2023-04-01T15:04:32;100266.72;;;7.41;81.56
17764;BME280;22245;52.832;13.816;2023-04-01T15:08:05;100272.00;;;7.41;81.89
17764;BME280;22245;52.832;13.816;2023-04-01T15:11:44;100267.44;;;7.43;82.40
17764;BME280;22245;52.832;13.816;2023-04-01T15:15:18;100276.69;;;7.48;81.24
17764;BME280;22245;52.832;13.816;2023-04-01T15:18:52;100288.03;;;7.50;81.98
17764;BME280;22245;52.832;13.816;2023-04-01T15:22:28;100293.44;;;7.49;81.32
17764;BME280;22245;52.832;13.816;2023-04-01T15:26:19;100297.78;;;7.38;80.77
17764;BME280;22245;52.832;13.816;2023-04-01T15:30:00;100296.84;;;7.28;80.98
17764;BME280;22245;52.832;13.816;2023-04-01T15:33:43;100303.34;;;7.24;80.56
17764;BME280;22245;52.832;13.816;2023-04-01T15:37:13;100306.81;;;7.24;81.15
17764;BME280;22245;52.832;13.816;2023-04-01T15:40:44;100315.84;;;7.22;80.89
17764;BME280;22245;52.832;13.816;2023-04-01T15:44:32;100321.16;;;7.22;80.45
17764;BME280;22245;52.832;13.816;2023-04-01T15:48:01;100339.06;;;7.18;81.06
17764;BME280;22245;52.832;13.816;2023-04-01T15:51:36;100341.59;;;7.08;79.93
17764;BME280;22245;52.832;13.816;2023-04-01T15:55:15;100346.38;;;6.92;79.96
17764;BME280;22245;52.832;13.816;2023-04-01T15:58:49;100356.09;;;6.80;81.37
17764;BME280;22245;52.832;13.816;2023-04-01T16:02:18;100360.28;;;6.71;81.17
17764;BME280;22245;52.832;13.816;2023-04-01T16:05:55;100351.84;;;6.66;81.88
17764;BME280;22245;52.832;13.816;2023-04-01T16:09:36;100362.41;;;6.66;82.08
17764;BME280;22245;52.832;13.816;2023-04-01T16:13:14;100366.53;;;6.70;81.85
17764;BME280;22245;52.832;13.816;2023-04-01T16:16:59;100376.63;;;6.65;81.26
17764;BME280;22245;52.832;13.816;2023-04-01T16:20:40;100388.78;;;6.68;81.79
17764;BME280;22245;52.832;13.816;2023-04-01T16:24:14;100394.09;;;6.68;81.19
17764;BME280;22245;52.832;13.816;2023-04-01T16:27:44;100389.84;;;6.65;81.13
17764;BME280;22245;52.832;13.816;2023-04-01T16:31:14;100409.44;;;6.62;80.43
17764;BME280;22245;52.832;13.816;2023-04-01T16:34:41;100409.66;;;6.59;79.84
17764;BME280;22245;52.832;13.816;2023-04-01T16:38:13;100419.88;;;6.53;80.92
17764;BME280;22245;52.832;13.816;2023-04-01T16:41:46;100419.66;;;6.56;81.01
17764;BME280;22245;52.832;13.816;2023-04-01T16:45:19;100425.66;;;6.58;80.47
17764;BME280;22245;52.832;13.816;2023-04-01T16:48:56;100425.16;;;6.53;79.81
17764;BME280;22245;52.832;13.816;2023-04-01T16:52:34;100446.47;;;6.38;79.52
17764;BME280;22245;52.832;13.816;2023-04-01T16:56:10;100455.94;;;6.29;80.14
17764;BME280;22245;52.832;13.816;2023-04-01T16:59:37;100449.38;;;6.22;80.70
17764;BME280;22245;52.832;13.816;2023-04-01T17:03:08;100461.03;;;6.19;81.29
17764;BME280;22245;52.832;13.816;2023-04-01T17:06:39;100462.53;;;6.11;80.66
17764;BME280;22245;52.832;13.816;2023-04-01T17:10:28;100474.38;;;6.05;81.53
17764;BME280;22245;52.832;13.816;2023-04-01T17:13:59;100482.44;;;6.03;81.64
17764;BME280;22245;52.832;13.816;2023-04-01T17:17:36;100476.06;;;6.06;82.05
17764;BME280;22245;52.832;13.816;2023-04-01T17:21:02;100485.81;;;6.05;81.32
17764;BME280;22245;52.832;13.816;2023-04-01T17:24:38;100491.00;;;6.07;80.92
17764;BME280;22245;52.832;13.816;2023-04-01T17:28:10;100504.41;;;6.04;81.26
17764;BME280;22245;52.832;13.816;2023-04-01T17:31:46;100501.97;;;6.01;80.99
17764;BME280;22245;52.832;13.816;2023-04-01T17:35:12;100509.91;;;6.01;81.53
17764;BME280;22245;52.832;13.816;2023-04-01T17:39:03;100514.56;;;5.97;81.20
17764;BME280;22245;52.832;13.816;2023-04-01T17:42:37;100520.66;;;5.98;81.21
17764;BME280;22245;52.832;13.816;2023-04-01T17:46:08;100526.38;;;5.91;81.54
17764;BME280;22245;52.832;13.816;2023-04-01T17:49:37;100537.91;;;5.90;81.52
17764;BME280;22245;52.832;13.816;2023-04-01T17:53:14;100540.97;;;5.84;80.58
17764;BME280;22245;52.832;13.816;2023-04-01T17:56:45;100545.75;;;5.79;81.17
17764;BME280;22245;52.832;13.816;2023-04-01T18:00:23;100560.31;;;5.72;80.69
17764;BME280;22245;52.832;13.816;2023-04-01T18:03:56;100550.91;;;5.55;80.91
17764;BME280;22245;52.832;13.816;2023-04-01T18:07:44;100565.97;;;5.40;81.67
17764;BME280;22245;52.832;13.816;2023-04-01T18:11:19;100573.66;;;5.30;81.97
17764;BME280;22245;52.832;13.816;2023-04-01T18:18:50;100588.63;;;5.16;82.04
17764;BME280;22245;52.832;13.816;2023-04-01T18:22:19;100592.09;;;5.17;82.45
17764;BME280;22245;52.832;13.816;2023-04-01T18:25:44;100604.06;;;5.22;82.40
17764;BME280;22245;52.832;13.816;2023-04-01T18:29:23;100609.97;;;5.26;82.27
17764;BME280;22245;52.832;13.816;2023-04-01T18:32:50;100618.63;;;5.28;81.81
17764;BME280;22245;52.832;13.816;2023-04-01T18:36:18;100616.50;;;5.20;81.49
17764;BME280;22245;52.832;13.816;2023-04-01T18:39:43;100634.53;;;5.14;81.37
17764;BME280;22245;52.832;13.816;2023-04-01T18:43:14;100623.41;;;5.09;81.74
17764;BME280;22245;52.832;13.816;2023-04-01T18:46:45;100636.50;;;5.10;82.23
17764;BME280;22245;52.832;13.816;2023-04-01T18:50:18;100644.06;;;5.16;81.81
17764;BME280;22245;52.832;13.816;2023-04-01T18:53:44;100637.81;;;5.17;81.75
17764;BME280;22245;52.832;13.816;2023-04-01T18:57:12;100655.44;;;5.17;82.43
17764;BME280;22245;52.832;13.816;2023-04-01T19:00:38;100662.13;;;5.22;81.29
17764;BME280;22245;52.832;13.816;2023-04-01T19:04:12;100666.56;;;5.22;81.03
17764;BME280;22245;52.832;13.816;2023-04-01T19:07:43;100669.41;;;5.19;81.64
17764;BME280;22245;52.832;13.816;2023-04-01T19:11:09;100680.91;;;5.18;80.44
17764;BME280;22245;52.832;13.816;2023-04-01T19:14:44;100689.97;;;5.14;80.47
17764;BME280;22245;52.832;13.816;2023-04-01T19:18:29;100684.59;;;5.15;80.45
17764;BME280;22245;52.832;13.816;2023-04-01T19:21:57;100701.09;;;5.19;80.82
17764;BME280;22245;52.832;13.816;2023-04-01T19:25:27;100705.41;;;5.20;80.14